Zeltweg, Austria
Current Conditions -  °F | °C
As of 10:50 PM on Thursday 23 Oct 2014 (Local Time) from LOXZ Reporting Station
Scattered Clouds Scattered Clouds  
Wind Chill: 44°   Ceiling: Unl
Heat Index: 46°   Visibility: 13mi
Dew Point: 37°   Wind: 5mph
Humidity: 71%   Direction: 110°ESE
Pressure: 30.03"   Gusts: NA
Location:  47.19°N, 14.75°E
Report Text: LOXZ 232050Z 11004KT 20KM SCT050SC SCT080AC 08/03 Q1017 RMKBKN
Loading
Personal Weather Stations






























Interactive Weather Map
Tropical Storm Tracking
New forecast layout! Learn more

10-Day Weather Forecast

Advertisements
Track Severe Weather on mobile